EJA906 KIAD-KRDU
Flight info
| Callsign | EJA906 |
|---|---|
| Flight time | 0h 40m |
| Altitude | 20000 |
| Route | JDUBB4 MELTN ALDAN4 |
| Aircraft | C750/M-SBDFGHRWXY/S |
Departure
| Time | 2026-05-06 23:45 |
|---|---|
| Airport | Washington Dulles International Airport (KIAD) |
Arrival
| Time | 2026-05-07 00:26 |
|---|---|
| Airport | Raleigh-Durham International Airport (KRDU) |
| Time | Latitude | Longitude | Altitude | Speed | Heading |
|---|---|---|---|---|---|
| 2026-05-06 23:11 | 38.95388 | -77.44124 | 289 ft | 0 kts | 2° |
| 2026-05-06 23:38 | 38.95408 | -77.44119 | 289 ft | 4 kts | 20° |
| 2026-05-06 23:38 | 38.95438 | -77.44103 | 290 ft | 4 kts | 23° |
| 2026-05-06 23:39 | 38.95468 | -77.44083 | 290 ft | 5 kts | 38° |
| 2026-05-06 23:39 | 38.95482 | -77.44060 | 290 ft | 2 kts | 73° |
| 2026-05-06 23:39 | 38.95488 | -77.44030 | 291 ft | 4 kts | 81° |
| 2026-05-06 23:39 | 38.95488 | -77.43989 | 292 ft | 7 kts | 91° |
| 2026-05-06 23:40 | 38.95488 | -77.43910 | 292 ft | 9 kts | 89° |
| 2026-05-06 23:40 | 38.95488 | -77.43841 | 292 ft | 6 kts | 91° |
| 2026-05-06 23:40 | 38.95487 | -77.43787 | 292 ft | 5 kts | 92° |
| 2026-05-06 23:40 | 38.95486 | -77.43753 | 293 ft | 3 kts | 91° |
| 2026-05-06 23:41 | 38.95486 | -77.43735 | 293 ft | 1 kts | 91° |
| 2026-05-06 23:41 | 38.95486 | -77.43733 | 293 ft | 0 kts | 91° |
| 2026-05-06 23:44 | 38.95486 | -77.43715 | 294 ft | 4 kts | 91° |
| 2026-05-06 23:44 | 38.95485 | -77.43675 | 295 ft | 4 kts | 91° |
| 2026-05-06 23:44 | 38.95484 | -77.43635 | 294 ft | 5 kts | 92° |
| 2026-05-06 23:44 | 38.95458 | -77.43600 | 294 ft | 7 kts | 176° |
| 2026-05-06 23:45 | 38.95326 | -77.43601 | 294 ft | 57 kts | 181° |
| 2026-05-06 23:45 | 38.94516 | -77.43608 | 365 ft | 161 kts | 181° |
| 2026-05-06 23:45 | 38.93270 | -77.43581 | 1139 ft | 193 kts | 180° |
| 2026-05-06 23:45 | 38.91842 | -77.43481 | 1704 ft | 220 kts | 180° |
| 2026-05-06 23:46 | 38.90239 | -77.43324 | 2199 ft | 246 kts | 180° |
| 2026-05-06 23:46 | 38.88456 | -77.43127 | 2502 ft | 266 kts | 179° |
| 2026-05-06 23:46 | 38.86612 | -77.42926 | 2917 ft | 264 kts | 181° |
| 2026-05-06 23:46 | 38.84829 | -77.43049 | 3571 ft | 254 kts | 196° |
| 2026-05-06 23:47 | 38.83127 | -77.43570 | 4360 ft | 253 kts | 199° |
| 2026-05-06 23:47 | 38.81408 | -77.44108 | 5061 ft | 258 kts | 199° |
| 2026-05-06 23:47 | 38.79659 | -77.44623 | 5831 ft | 262 kts | 200° |
| 2026-05-06 23:47 | 38.77874 | -77.45168 | 6587 ft | 267 kts | 200° |
| 2026-05-06 23:48 | 38.76081 | -77.45712 | 7414 ft | 268 kts | 200° |
| 2026-05-06 23:48 | 38.74268 | -77.46263 | 8107 ft | 269 kts | 201° |
| 2026-05-06 23:48 | 38.72461 | -77.46809 | 8791 ft | 270 kts | 200° |
| 2026-05-06 23:48 | 38.70654 | -77.47353 | 9656 ft | 271 kts | 201° |
| 2026-05-06 23:49 | 38.68800 | -77.47916 | 10647 ft | 283 kts | 200° |
| 2026-05-06 23:49 | 38.66856 | -77.48502 | 11642 ft | 299 kts | 201° |
| 2026-05-06 23:49 | 38.64800 | -77.49125 | 12633 ft | 314 kts | 200° |
| 2026-05-06 23:49 | 38.62638 | -77.49773 | 13576 ft | 329 kts | 200° |
| 2026-05-06 23:50 | 38.60376 | -77.50451 | 14510 ft | 342 kts | 200° |
| 2026-05-06 23:50 | 38.55634 | -77.51872 | 16328 ft | 363 kts | 201° |
| 2026-05-06 23:50 | 38.53166 | -77.52615 | 17231 ft | 371 kts | 201° |
| 2026-05-06 23:51 | 38.50632 | -77.53373 | 18165 ft | 378 kts | 201° |
| 2026-05-06 23:51 | 38.48076 | -77.54139 | 19035 ft | 384 kts | 202° |
| 2026-05-06 23:51 | 38.45438 | -77.54924 | 19714 ft | 391 kts | 202° |
| 2026-05-06 23:51 | 38.42760 | -77.55733 | 19864 ft | 411 kts | 202° |
| 2026-05-06 23:52 | 38.39939 | -77.56690 | 19861 ft | 419 kts | 208° |
| 2026-05-06 23:52 | 38.37493 | -77.58533 | 19891 ft | 401 kts | 223° |
| 2026-05-06 23:52 | 38.35204 | -77.60499 | 19870 ft | 402 kts | 220° |
| 2026-05-06 23:52 | 38.32881 | -77.62501 | 19863 ft | 400 kts | 222° |
| 2026-05-06 23:53 | 38.30588 | -77.64463 | 19865 ft | 403 kts | 221° |
| 2026-05-06 23:53 | 38.28247 | -77.66482 | 19874 ft | 406 kts | 221° |
| 2026-05-06 23:53 | 38.25915 | -77.68493 | 19876 ft | 409 kts | 220° |
| 2026-05-06 23:53 | 38.23557 | -77.70524 | 19881 ft | 411 kts | 220° |
| 2026-05-06 23:54 | 38.21162 | -77.72584 | 19880 ft | 413 kts | 220° |
| 2026-05-06 23:54 | 38.18804 | -77.74604 | 19882 ft | 413 kts | 221° |
| 2026-05-06 23:54 | 38.16428 | -77.76650 | 19881 ft | 414 kts | 220° |
| 2026-05-06 23:54 | 38.14041 | -77.78699 | 19886 ft | 415 kts | 221° |
| 2026-05-06 23:55 | 38.11638 | -77.80747 | 19885 ft | 416 kts | 220° |
| 2026-05-06 23:55 | 38.09253 | -77.82806 | 19887 ft | 416 kts | 220° |
| 2026-05-06 23:55 | 38.06849 | -77.84856 | 19886 ft | 416 kts | 220° |
| 2026-05-06 23:55 | 38.04431 | -77.86921 | 19889 ft | 416 kts | 220° |
| 2026-05-06 23:56 | 38.02065 | -77.88953 | 19892 ft | 416 kts | 221° |
| 2026-05-06 23:56 | 37.99659 | -77.90995 | 19893 ft | 416 kts | 220° |
| 2026-05-06 23:56 | 37.97259 | -77.93056 | 19896 ft | 416 kts | 220° |
| 2026-05-06 23:56 | 37.94849 | -77.95091 | 19897 ft | 415 kts | 220° |
| 2026-05-06 23:57 | 37.92474 | -77.97130 | 19903 ft | 414 kts | 220° |
| 2026-05-06 23:57 | 37.90060 | -77.99177 | 19903 ft | 414 kts | 220° |
| 2026-05-06 23:57 | 37.87678 | -78.01208 | 19903 ft | 414 kts | 220° |
| 2026-05-06 23:57 | 37.85295 | -78.03230 | 19907 ft | 413 kts | 220° |
| 2026-05-06 23:58 | 37.82927 | -78.05243 | 19904 ft | 413 kts | 220° |
| 2026-05-06 23:58 | 37.80530 | -78.07276 | 19904 ft | 413 kts | 220° |
| 2026-05-06 23:58 | 37.78157 | -78.09289 | 19902 ft | 412 kts | 220° |
| 2026-05-06 23:58 | 37.75786 | -78.11289 | 19901 ft | 412 kts | 220° |
| 2026-05-06 23:59 | 37.73398 | -78.13323 | 19903 ft | 411 kts | 220° |
| 2026-05-06 23:59 | 37.71031 | -78.15314 | 19908 ft | 411 kts | 220° |
| 2026-05-06 23:59 | 37.68677 | -78.17308 | 19908 ft | 411 kts | 220° |
| 2026-05-06 23:59 | 37.66277 | -78.19337 | 19905 ft | 411 kts | 220° |
| 2026-05-07 00:00 | 37.63937 | -78.21310 | 19903 ft | 410 kts | 220° |
| 2026-05-07 00:00 | 37.61560 | -78.23315 | 19907 ft | 410 kts | 220° |
| 2026-05-07 00:00 | 37.59199 | -78.25304 | 19905 ft | 410 kts | 220° |
| 2026-05-07 00:00 | 37.57606 | -78.26645 | 19900 ft | 409 kts | 220° |
| 2026-05-07 00:01 | 37.54468 | -78.29276 | 19908 ft | 409 kts | 220° |
| 2026-05-07 00:01 | 37.52079 | -78.31297 | 19904 ft | 409 kts | 220° |
| 2026-05-07 00:01 | 37.49731 | -78.33262 | 19909 ft | 409 kts | 220° |
| 2026-05-07 00:01 | 37.47353 | -78.35259 | 19909 ft | 409 kts | 220° |
| 2026-05-07 00:02 | 37.44990 | -78.37241 | 19907 ft | 408 kts | 220° |
| 2026-05-07 00:02 | 37.42664 | -78.39193 | 19906 ft | 407 kts | 220° |
| 2026-05-07 00:02 | 37.40306 | -78.41162 | 19905 ft | 405 kts | 220° |
| 2026-05-07 00:02 | 37.37959 | -78.43125 | 19908 ft | 405 kts | 220° |
| 2026-05-07 00:03 | 37.35612 | -78.45088 | 19906 ft | 404 kts | 220° |
| 2026-05-07 00:03 | 37.33275 | -78.47040 | 19905 ft | 405 kts | 220° |
| 2026-05-07 00:03 | 37.30924 | -78.49013 | 19908 ft | 405 kts | 220° |
| 2026-05-07 00:03 | 37.28567 | -78.50968 | 19910 ft | 406 kts | 220° |
| 2026-05-07 00:04 | 37.26225 | -78.52925 | 19908 ft | 406 kts | 220° |
| 2026-05-07 00:04 | 37.23872 | -78.54886 | 19908 ft | 407 kts | 220° |
| 2026-05-07 00:04 | 37.21508 | -78.56847 | 19907 ft | 407 kts | 220° |
| 2026-05-07 00:04 | 37.19174 | -78.58787 | 19908 ft | 408 kts | 219° |
| 2026-05-07 00:05 | 37.16786 | -78.60777 | 19905 ft | 408 kts | 220° |
| 2026-05-07 00:05 | 37.14426 | -78.62735 | 19905 ft | 409 kts | 220° |
| 2026-05-07 00:05 | 37.12067 | -78.64695 | 19906 ft | 409 kts | 220° |
| 2026-05-07 00:05 | 37.09683 | -78.66675 | 19921 ft | 411 kts | 220° |
| 2026-05-07 00:06 | 37.07300 | -78.68651 | 19919 ft | 414 kts | 219° |
| 2026-05-07 00:06 | 37.04910 | -78.70631 | 19919 ft | 415 kts | 219° |
| 2026-05-07 00:06 | 37.02501 | -78.72634 | 19920 ft | 416 kts | 219° |
| 2026-05-07 00:06 | 37.00066 | -78.74638 | 19920 ft | 416 kts | 219° |
| 2026-05-07 00:07 | 36.97651 | -78.76635 | 19922 ft | 417 kts | 219° |
| 2026-05-07 00:07 | 36.95242 | -78.78623 | 19923 ft | 418 kts | 219° |
| 2026-05-07 00:07 | 36.92797 | -78.80642 | 19918 ft | 418 kts | 219° |
| 2026-05-07 00:07 | 36.90378 | -78.82632 | 19919 ft | 418 kts | 219° |
| 2026-05-07 00:08 | 36.87974 | -78.84620 | 19914 ft | 417 kts | 219° |
| 2026-05-07 00:08 | 36.85537 | -78.86623 | 19846 ft | 418 kts | 219° |
| 2026-05-07 00:08 | 36.83111 | -78.88620 | 19616 ft | 413 kts | 219° |
| 2026-05-07 00:08 | 36.80737 | -78.90572 | 19151 ft | 410 kts | 219° |
| 2026-05-07 00:09 | 36.78362 | -78.92515 | 18657 ft | 408 kts | 219° |
| 2026-05-07 00:09 | 36.76017 | -78.94443 | 18161 ft | 405 kts | 219° |
| 2026-05-07 00:09 | 36.73702 | -78.96350 | 17673 ft | 394 kts | 219° |
| 2026-05-07 00:09 | 36.71432 | -78.98200 | 17186 ft | 382 kts | 219° |
| 2026-05-07 00:10 | 36.69273 | -78.99941 | 16756 ft | 367 kts | 217° |
| 2026-05-07 00:10 | 36.66853 | -79.00898 | 16264 ft | 370 kts | 192° |
| 2026-05-07 00:10 | 36.64305 | -79.00530 | 15834 ft | 372 kts | 174° |
| 2026-05-07 00:10 | 36.61819 | -78.99797 | 15395 ft | 359 kts | 175° |
| 2026-05-07 00:11 | 36.59441 | -78.99103 | 14954 ft | 350 kts | 175° |
| 2026-05-07 00:11 | 36.57087 | -78.98418 | 14516 ft | 341 kts | 175° |
| 2026-05-07 00:11 | 36.54822 | -78.97760 | 14090 ft | 331 kts | 175° |
| 2026-05-07 00:11 | 36.52597 | -78.97116 | 13665 ft | 323 kts | 175° |
| 2026-05-07 00:12 | 36.50436 | -78.96490 | 13237 ft | 316 kts | 175° |
| 2026-05-07 00:12 | 36.48319 | -78.95879 | 12816 ft | 312 kts | 176° |
| 2026-05-07 00:12 | 36.46213 | -78.95271 | 12397 ft | 308 kts | 175° |
| 2026-05-07 00:12 | 36.44136 | -78.94666 | 11985 ft | 305 kts | 175° |
| 2026-05-07 00:13 | 36.42077 | -78.94077 | 11576 ft | 304 kts | 175° |
| 2026-05-07 00:13 | 36.40039 | -78.93356 | 11145 ft | 313 kts | 162° |
| 2026-05-07 00:13 | 36.38313 | -78.91663 | 10760 ft | 321 kts | 139° |
| 2026-05-07 00:13 | 36.36794 | -78.89655 | 10398 ft | 312 kts | 139° |
| 2026-05-07 00:14 | 36.35335 | -78.87757 | 10044 ft | 303 kts | 140° |
| 2026-05-07 00:14 | 36.33902 | -78.85915 | 9684 ft | 291 kts | 140° |
| 2026-05-07 00:14 | 36.32515 | -78.84139 | 9341 ft | 281 kts | 140° |
| 2026-05-07 00:14 | 36.31167 | -78.82426 | 9014 ft | 273 kts | 140° |
| 2026-05-07 00:15 | 36.29854 | -78.80759 | 8689 ft | 267 kts | 141° |
| 2026-05-07 00:15 | 36.28572 | -78.79156 | 8379 ft | 261 kts | 140° |
| 2026-05-07 00:15 | 36.27302 | -78.77557 | 8056 ft | 257 kts | 140° |
| 2026-05-07 00:15 | 36.26062 | -78.75981 | 7743 ft | 255 kts | 140° |
| 2026-05-07 00:16 | 36.24832 | -78.74422 | 7426 ft | 253 kts | 140° |
| 2026-05-07 00:16 | 36.23607 | -78.72871 | 7119 ft | 253 kts | 140° |
| 2026-05-07 00:16 | 36.22374 | -78.71307 | 6813 ft | 253 kts | 141° |
| 2026-05-07 00:16 | 36.21143 | -78.69752 | 6502 ft | 253 kts | 140° |
| 2026-05-07 00:17 | 36.19923 | -78.68205 | 6195 ft | 252 kts | 140° |
| 2026-05-07 00:17 | 36.18723 | -78.66637 | 5877 ft | 252 kts | 134° |
| 2026-05-07 00:17 | 36.17696 | -78.64885 | 5571 ft | 252 kts | 130° |
| 2026-05-07 00:17 | 36.16686 | -78.63118 | 5256 ft | 249 kts | 130° |
| 2026-05-07 00:18 | 36.15698 | -78.61392 | 4961 ft | 245 kts | 131° |
| 2026-05-07 00:18 | 36.14735 | -78.59704 | 4669 ft | 241 kts | 130° |
| 2026-05-07 00:18 | 36.13766 | -78.58003 | 4376 ft | 238 kts | 130° |
| 2026-05-07 00:18 | 36.12765 | -78.56410 | 4065 ft | 229 kts | 146° |
| 2026-05-07 00:19 | 36.11381 | -78.55760 | 3801 ft | 208 kts | 185° |
| 2026-05-07 00:19 | 36.09949 | -78.55859 | 3558 ft | 205 kts | 189° |
| 2026-05-07 00:19 | 36.08529 | -78.55994 | 3295 ft | 206 kts | 189° |
| 2026-05-07 00:19 | 36.07099 | -78.56158 | 3082 ft | 204 kts | 189° |
| 2026-05-07 00:20 | 36.05757 | -78.56542 | 2982 ft | 196 kts | 210° |
| 2026-05-07 00:20 | 36.04671 | -78.57530 | 2982 ft | 195 kts | 221° |
| 2026-05-07 00:20 | 36.03635 | -78.58632 | 2962 ft | 195 kts | 221° |
| 2026-05-07 00:20 | 36.02638 | -78.59772 | 2969 ft | 195 kts | 225° |
| 2026-05-07 00:21 | 36.01676 | -78.60953 | 2974 ft | 194 kts | 226° |
| 2026-05-07 00:21 | 36.00729 | -78.62136 | 2992 ft | 192 kts | 226° |
| 2026-05-07 00:21 | 35.99772 | -78.63297 | 2993 ft | 192 kts | 226° |
| 2026-05-07 00:21 | 35.98857 | -78.64491 | 3002 ft | 191 kts | 226° |
| 2026-05-07 00:22 | 35.97894 | -78.65629 | 2975 ft | 192 kts | 225° |
| 2026-05-07 00:22 | 35.96940 | -78.66804 | 2879 ft | 194 kts | 226° |
| 2026-05-07 00:22 | 35.96025 | -78.67960 | 2720 ft | 187 kts | 226° |
| 2026-05-07 00:22 | 35.95114 | -78.69076 | 2484 ft | 179 kts | 225° |
| 2026-05-07 00:23 | 35.94237 | -78.70135 | 2203 ft | 175 kts | 226° |
| 2026-05-07 00:23 | 35.93422 | -78.71144 | 1950 ft | 157 kts | 226° |
| 2026-05-07 00:23 | 35.92691 | -78.72049 | 1720 ft | 141 kts | 227° |
| 2026-05-07 00:23 | 35.92018 | -78.72876 | 1525 ft | 130 kts | 226° |
| 2026-05-07 00:24 | 35.91411 | -78.73617 | 1366 ft | 119 kts | 227° |
| 2026-05-07 00:24 | 35.90833 | -78.74316 | 1219 ft | 113 kts | 226° |
| 2026-05-07 00:24 | 35.90293 | -78.75002 | 1080 ft | 111 kts | 227° |
| 2026-05-07 00:24 | 35.89738 | -78.75674 | 952 ft | 111 kts | 225° |
| 2026-05-07 00:25 | 35.89200 | -78.76350 | 810 ft | 112 kts | 226° |
| 2026-05-07 00:25 | 35.88645 | -78.77044 | 663 ft | 113 kts | 225° |
| 2026-05-07 00:25 | 35.88089 | -78.77725 | 508 ft | 113 kts | 225° |
| 2026-05-07 00:25 | 35.87566 | -78.78371 | 428 ft | 92 kts | 225° |
| 2026-05-07 00:26 | 35.87273 | -78.78734 | 423 ft | 36 kts | 225° |
| 2026-05-07 00:26 | 35.87107 | -78.78938 | 416 ft | 30 kts | 225° |
| 2026-05-07 00:26 | 35.87030 | -78.79081 | 412 ft | 15 kts | 290° |
| 2026-05-07 00:26 | 35.87066 | -78.79134 | 412 ft | 3 kts | 324° |
| 2026-05-07 00:27 | 35.87083 | -78.79143 | 412 ft | 4 kts | 357° |
| 2026-05-07 00:27 | 35.87136 | -78.79096 | 414 ft | 11 kts | 44° |
| 2026-05-07 00:27 | 35.87204 | -78.79012 | 416 ft | 18 kts | 45° |
| 2026-05-07 00:27 | 35.87303 | -78.78892 | 420 ft | 19 kts | 45° |
| 2026-05-07 00:28 | 35.87394 | -78.78780 | 422 ft | 18 kts | 45° |
| 2026-05-07 00:28 | 35.87484 | -78.78667 | 426 ft | 17 kts | 46° |
| 2026-05-07 00:28 | 35.87572 | -78.78558 | 427 ft | 18 kts | 45° |
| 2026-05-07 00:28 | 35.87658 | -78.78451 | 427 ft | 17 kts | 45° |
| 2026-05-07 00:29 | 35.87763 | -78.78411 | 428 ft | 16 kts | 19° |
| 2026-05-07 00:29 | 35.87831 | -78.78371 | 428 ft | 8 kts | 317° |